This is the latest recevied weather packets stored in our database for station/object YO8RXT-3. If no packets are shown the sender has not sent any weather packets the latest 10 day(s).
| Time | Temp. | Humidity | Pressure | Rain* | Wind** | Luminosity | Snow |
|---|---|---|---|---|---|---|---|
| 1777727102 | 12.78° C | 33% | 1023 hPa | - | - | - | - |
| 1777725303 | 12.78° C | 33% | 1024 hPa | - | - | - | - |
| 1777723503 | 13.89° C | 31% | 1024 hPa | - | - | - | - |
| 1777721702 | 12.78° C | 31% | 1024 hPa | - | - | - | - |
| 1777719902 | 12.78° C | 31% | 1024 hPa | - | - | - | - |
| 1777718103 | 12.78° C | 33% | 1024 hPa | - | - | - | - |
| 1777716302 | 12.22° C | 38% | 1024 hPa | - | - | - | - |
| 1777714502 | 12.78° C | 44% | 1024 hPa | - | - | - | - |
| 1777712703 | 12.22° C | 44% | 1024 hPa | - | - | - | - |
| 1777710903 | 11.11° C | 47% | 1025 hPa | - | - | - | - |
| 1777709103 | 12.22° C | - | - | - | - | - | - |
| 1777707302 | 10° C | 54% | 1024 hPa | - | - | - | - |
| 1777705504 | 8.89° C | 62% | 1024 hPa | - | - | - | - |
| 1777703703 | 8.89° C | 62% | 1024 hPa | - | - | - | - |
| 1777701902 | 7.78° C | 76% | 1024 hPa | - | - | - | - |
| 1777700102 | 7.78° C | 71% | 1024 hPa | - | - | - | - |
| 1777698302 | 7.78° C | 71% | 1024 hPa | - | - | - | - |
| 1777696502 | 7.22° C | 76% | 1023 hPa | - | - | - | - |
| 1777694702 | 7.22° C | 71% | 1023 hPa | - | - | - | - |
| 1777692903 | 7.22° C | 71% | 1023 hPa | - | - | - | - |
| 1777691103 | 7.22° C | 71% | 1023 hPa | - | - | - | - |
| 1777689303 | 6.11° C | 81% | 1023 hPa | - | - | - | - |
| 1777687503 | 7.22° C | 71% | 1023 hPa | - | - | - | - |
| 1777685702 | 7.22° C | 71% | 1023 hPa | - | - | - | - |
| 1777683903 | 7.22° C | 71% | 1023 hPa | - | - | - | - |
* Rain since midnight (hover to see other rain measurements)
** Current wind speed in m/s (hover to see current wind gust speed)